Jeffrey G Stover — WDI4806 — position and weather

sailwx.info

Track history (hours):
 
Tides and Currents Weather Stations Pressure Air Temp Water Temp Dewpoint Dewpoint Depression Visibility Wind Speed Wind Dir Waves Ship Positions

Jeffrey G Stover

Owner: ACBL River Operations LLC, Jeffersonville, IN. More information available from US FCC via Universal Licensing System and Coast Guard Vessel Documentation Center.

Last reported at 2017-Sep-17 02:25 UTC. Time now 2017-Sep-23 03:38 UTC.
Position N 32°47' W 091°09'.

Length 56 m; draft 3.1 m.

Type: Towing. MMSI: 367702190.

Date/timePositionNaut miles runAvg speedWind from/ knotsBaromVisibWave heightAir tempDewpointWater temp
2017-Sep-17 02:25N 32°47' W 091°09'2 5.2
2017-Sep-17 02:00N 32°45' W 091°09'5 1.4
2017-Sep-16 22:40N 32°40' W 091°07'1 4.6
2017-Sep-16 22:30N 32°40' W 091°08'2 4.5
2017-Sep-16 22:00N 32°38' W 091°09'1 2.6
2017-Sep-16 21:30N 32°37' W 091°09'3 5.2
2017-Sep-16 21:00N 32°35' W 091°07'2 4.8
2017-Sep-16 20:30N 32°32' W 091°06'3 5.7
2017-Sep-16 20:00N 32°30' W 091°07'3 5.5
2017-Sep-16 19:30N 32°27' W 091°05'3 5.5
2017-Sep-16 19:00N 32°26' W 091°02'3 5.0
2017-Sep-16 18:30N 32°25' W 090°60'2 3.9
2017-Sep-16 18:00N 32°23' W 090°60'1 2.7
2017-Sep-16 17:30N 32°22' W 091°00'3 5.4
2017-Sep-16 17:00N 32°21' W 090°57'3 5.3
2017-Sep-16 16:30N 32°20' W 090°54'2 4.0
2017-Sep-16 16:00N 32°18' W 090°55'1 2.0
2017-Sep-16 15:30N 32°18' W 090°56'3 5.0
2017-Sep-16 15:00N 32°16' W 090°58'2 4.2
2017-Sep-16 14:30N 32°14' W 090°59'1 1.3
2017-Sep-16 14:00N 32°14' W 090°59'2 4.7
2017-Sep-16 13:30N 32°11' W 090°60'2 4.8
2017-Sep-16 13:00N 32°09' W 091°00'2 4.4
2017-Sep-16 12:30N 32°07' W 091°02'3 4.9
2017-Sep-16 11:53N 32°08' W 091°05'1 4.0
2017-Sep-16 11:30N 32°07' W 091°07'4 4.9
2017-Sep-16 10:39N 32°04' W 091°03'1 5.0
2017-Sep-16 10:30N 32°03' W 091°03'3 6.3
2017-Sep-16 10:00N 32°00' W 091°05'5 4.2
2017-Sep-16 08:47N 31°58' W 091°11'  
2017-Sep-13 00:50N 31°42' W 091°24'7 8.4
2017-Sep-12 23:59N 31°49' W 091°21'12 7.4
2017-Sep-12 22:25N 31°57' W 091°11'5 7.6
2017-Sep-12 21:44N 31°59' W 091°06'2 8.4
2017-Sep-12 21:30N 32°01' W 091°04'5 7.6
2017-Sep-12 20:50N 32°06' W 091°06'2 5.4
2017-Sep-12 20:30N 32°08' W 091°06'2 3.7
2017-Sep-12 20:00N 32°08' W 091°04'3 6.9
2017-Sep-12 19:30N 32°09' W 091°00'4 8.1
2017-Sep-12 19:00N 32°12' W 090°59'3 5.8
2017-Sep-12 18:30N 32°15' W 090°59'3 6.2
2017-Sep-12 18:00N 32°17' W 090°56'3 6.2
2017-Sep-12 17:30N 32°20' W 090°54'2 3.6
2017-Sep-12 17:00N 32°21' W 090°56'4 7.2
2017-Sep-12 16:30N 32°21' W 091°00'4 7.9
2017-Sep-12 16:00N 32°25' W 091°01'4 8.7
2017-Sep-12 15:30N 32°27' W 091°05'4 7.6
2017-Sep-12 14:56N 32°31' W 091°06'3 8.1
2017-Sep-12 14:30N 32°35' W 091°07'4 8.4
2017-Sep-12 14:00N 32°39' W 091°09'7 6.9
2017-Sep-12 13:00N 32°44' W 091°04'  
Track history (hours):
 
Tides and Currents Weather Stations Pressure Air Temp Water Temp Dewpoint Dewpoint Depression Visibility Wind Speed Wind Dir Waves Ship Positions

Jeffrey G Stover

Owner: ACBL River Operations LLC, Jeffersonville, IN. More information available from US FCC via Universal Licensing System and Coast Guard Vessel Documentation Center.

Last reported at 2017-Sep-17 02:25 UTC. Time now 2017-Sep-23 03:38 UTC.
Position N 32°47' W 091°09'.

Length 56 m; draft 3.1 m.

Type: Towing. MMSI: 367702190.

Date/timePositionNaut miles runAvg speedWind from/ knotsBaromVisibWave heightAir tempDewpointWater temp
2017-Sep-17 02:25N 32°47' W 091°09'2 5.2
2017-Sep-17 02:00N 32°45' W 091°09'5 1.4
2017-Sep-16 22:40N 32°40' W 091°07'1 4.6
2017-Sep-16 22:30N 32°40' W 091°08'2 4.5
2017-Sep-16 22:00N 32°38' W 091°09'1 2.6
2017-Sep-16 21:30N 32°37' W 091°09'3 5.2
2017-Sep-16 21:00N 32°35' W 091°07'2 4.8
2017-Sep-16 20:30N 32°32' W 091°06'3 5.7
2017-Sep-16 20:00N 32°30' W 091°07'3 5.5
2017-Sep-16 19:30N 32°27' W 091°05'3 5.5
2017-Sep-16 19:00N 32°26' W 091°02'3 5.0
2017-Sep-16 18:30N 32°25' W 090°60'2 3.9
2017-Sep-16 18:00N 32°23' W 090°60'1 2.7
2017-Sep-16 17:30N 32°22' W 091°00'3 5.4
2017-Sep-16 17:00N 32°21' W 090°57'3 5.3
2017-Sep-16 16:30N 32°20' W 090°54'2 4.0
2017-Sep-16 16:00N 32°18' W 090°55'1 2.0
2017-Sep-16 15:30N 32°18' W 090°56'3 5.0
2017-Sep-16 15:00N 32°16' W 090°58'2 4.2
2017-Sep-16 14:30N 32°14' W 090°59'1 1.3
2017-Sep-16 14:00N 32°14' W 090°59'2 4.7
2017-Sep-16 13:30N 32°11' W 090°60'2 4.8
2017-Sep-16 13:00N 32°09' W 091°00'2 4.4
2017-Sep-16 12:30N 32°07' W 091°02'3 4.9
2017-Sep-16 11:53N 32°08' W 091°05'1 4.0
2017-Sep-16 11:30N 32°07' W 091°07'4 4.9
2017-Sep-16 10:39N 32°04' W 091°03'1 5.0
2017-Sep-16 10:30N 32°03' W 091°03'3 6.3
2017-Sep-16 10:00N 32°00' W 091°05'5 4.2
2017-Sep-16 08:47N 31°58' W 091°11'  
2017-Sep-13 00:50N 31°42' W 091°24'7 8.4
2017-Sep-12 23:59N 31°49' W 091°21'12 7.4
2017-Sep-12 22:25N 31°57' W 091°11'5 7.6
2017-Sep-12 21:44N 31°59' W 091°06'2 8.4
2017-Sep-12 21:30N 32°01' W 091°04'5 7.6
2017-Sep-12 20:50N 32°06' W 091°06'2 5.4
2017-Sep-12 20:30N 32°08' W 091°06'2 3.7
2017-Sep-12 20:00N 32°08' W 091°04'3 6.9
2017-Sep-12 19:30N 32°09' W 091°00'4 8.1
2017-Sep-12 19:00N 32°12' W 090°59'3 5.8
2017-Sep-12 18:30N 32°15' W 090°59'3 6.2
2017-Sep-12 18:00N 32°17' W 090°56'3 6.2
2017-Sep-12 17:30N 32°20' W 090°54'2 3.6
2017-Sep-12 17:00N 32°21' W 090°56'4 7.2
2017-Sep-12 16:30N 32°21' W 091°00'4 7.9
2017-Sep-12 16:00N 32°25' W 091°01'4 8.7
2017-Sep-12 15:30N 32°27' W 091°05'4 7.6
2017-Sep-12 14:56N 32°31' W 091°06'3 8.1
2017-Sep-12 14:30N 32°35' W 091°07'4 8.4
2017-Sep-12 14:00N 32°39' W 091°09'7 6.9
2017-Sep-12 13:00N 32°44' W 091°04'  

Dump ship's entire track history